sensor_id;sensor_type;location;lat;lon;timestamp;P1;durP1;ratioP1;P2;durP2;ratioP2
44850;SDS011;30583;48.714;9.386;2023-11-21T00:01:53;12.88;;;4.35;;
44850;SDS011;30583;48.714;9.386;2023-11-21T00:04:19;9.05;;;4.07;;
44850;SDS011;30583;48.714;9.386;2023-11-21T00:06:45;11.23;;;3.65;;
44850;SDS011;30583;48.714;9.386;2023-11-21T00:09:12;9.82;;;3.80;;
44850;SDS011;30583;48.714;9.386;2023-11-21T00:11:40;9.32;;;3.58;;
44850;SDS011;30583;48.714;9.386;2023-11-21T00:14:06;9.32;;;3.08;;
44850;SDS011;30583;48.714;9.386;2023-11-21T00:16:33;8.93;;;3.88;;
44850;SDS011;30583;48.714;9.386;2023-11-21T00:18:59;8.15;;;3.80;;
44850;SDS011;30583;48.714;9.386;2023-11-21T00:21:24;9.90;;;4.38;;
44850;SDS011;30583;48.714;9.386;2023-11-21T00:23:50;12.25;;;4.90;;
44850;SDS011;30583;48.714;9.386;2023-11-21T00:26:16;8.27;;;4.13;;
44850;SDS011;30583;48.714;9.386;2023-11-21T00:28:41;11.82;;;4.60;;
44850;SDS011;30583;48.714;9.386;2023-11-21T00:31:07;9.07;;;3.78;;
44850;SDS011;30583;48.714;9.386;2023-11-21T00:33:33;8.35;;;4.63;;
44850;SDS011;30583;48.714;9.386;2023-11-21T00:35:58;9.18;;;4.45;;
44850;SDS011;30583;48.714;9.386;2023-11-21T00:38:25;10.98;;;4.40;;
44850;SDS011;30583;48.714;9.386;2023-11-21T00:40:52;10.57;;;4.05;;
44850;SDS011;30583;48.714;9.386;2023-11-21T00:43:21;8.15;;;3.58;;
44850;SDS011;30583;48.714;9.386;2023-11-21T00:45:49;8.02;;;3.92;;
44850;SDS011;30583;48.714;9.386;2023-11-21T00:48:16;9.13;;;3.80;;
44850;SDS011;30583;48.714;9.386;2023-11-21T00:50:42;8.35;;;3.67;;
44850;SDS011;30583;48.714;9.386;2023-11-21T00:53:08;7.50;;;4.03;;
44850;SDS011;30583;48.714;9.386;2023-11-21T00:55:34;10.55;;;4.40;;
44850;SDS011;30583;48.714;9.386;2023-11-21T00:58:00;9.43;;;3.90;;
44850;SDS011;30583;48.714;9.386;2023-11-21T01:00:28;9.57;;;4.47;;
44850;SDS011;30583;48.714;9.386;2023-11-21T01:02:53;11.30;;;4.15;;
44850;SDS011;30583;48.714;9.386;2023-11-21T01:05:19;7.93;;;3.83;;
44850;SDS011;30583;48.714;9.386;2023-11-21T01:07:45;10.68;;;4.40;;
44850;SDS011;30583;48.714;9.386;2023-11-21T01:10:10;11.32;;;4.72;;
44850;SDS011;30583;48.714;9.386;2023-11-21T01:12:39;8.52;;;4.60;;
44850;SDS011;30583;48.714;9.386;2023-11-21T01:15:05;9.88;;;4.47;;
44850;SDS011;30583;48.714;9.386;2023-11-21T01:17:34;10.05;;;3.90;;
44850;SDS011;30583;48.714;9.386;2023-11-21T01:20:04;8.25;;;3.90;;
44850;SDS011;30583;48.714;9.386;2023-11-21T01:22:37;6.93;;;3.80;;
44850;SDS011;30583;48.714;9.386;2023-11-21T01:25:03;10.50;;;4.05;;
44850;SDS011;30583;48.714;9.386;2023-11-21T01:27:32;11.20;;;3.80;;
44850;SDS011;30583;48.714;9.386;2023-11-21T01:29:57;10.00;;;3.30;;
44850;SDS011;30583;48.714;9.386;2023-11-21T01:32:23;9.93;;;3.08;;
44850;SDS011;30583;48.714;9.386;2023-11-21T01:34:49;6.65;;;3.20;;
44850;SDS011;30583;48.714;9.386;2023-11-21T01:37:15;7.38;;;3.50;;
44850;SDS011;30583;48.714;9.386;2023-11-21T01:39:42;7.53;;;3.78;;
44850;SDS011;30583;48.714;9.386;2023-11-21T01:42:11;10.65;;;3.97;;
44850;SDS011;30583;48.714;9.386;2023-11-21T01:44:38;7.95;;;3.35;;
44850;SDS011;30583;48.714;9.386;2023-11-21T01:47:04;7.43;;;3.50;;
44850;SDS011;30583;48.714;9.386;2023-11-21T01:49:34;8.75;;;4.13;;
44850;SDS011;30583;48.714;9.386;2023-11-21T01:52:00;7.65;;;3.80;;
44850;SDS011;30583;48.714;9.386;2023-11-21T01:54:27;9.10;;;3.70;;
44850;SDS011;30583;48.714;9.386;2023-11-21T01:56:56;8.73;;;3.33;;
44850;SDS011;30583;48.714;9.386;2023-11-21T01:59:27;7.68;;;3.40;;
44850;SDS011;30583;48.714;9.386;2023-11-21T02:01:59;8.93;;;3.70;;
44850;SDS011;30583;48.714;9.386;2023-11-21T02:04:24;7.45;;;3.25;;
44850;SDS011;30583;48.714;9.386;2023-11-21T02:06:50;9.68;;;3.75;;
44850;SDS011;30583;48.714;9.386;2023-11-21T02:09:16;5.63;;;3.00;;
44850;SDS011;30583;48.714;9.386;2023-11-21T02:11:42;6.88;;;3.15;;
44850;SDS011;30583;48.714;9.386;2023-11-21T02:14:09;5.90;;;3.35;;
44850;SDS011;30583;48.714;9.386;2023-11-21T02:16:35;8.05;;;3.55;;
44850;SDS011;30583;48.714;9.386;2023-11-21T02:19:01;7.57;;;3.67;;
44850;SDS011;30583;48.714;9.386;2023-11-21T02:21:29;11.27;;;3.97;;
44850;SDS011;30583;48.714;9.386;2023-11-21T02:23:55;7.25;;;3.47;;
44850;SDS011;30583;48.714;9.386;2023-11-21T02:26:21;7.18;;;3.58;;
44850;SDS011;30583;48.714;9.386;2023-11-21T02:28:47;10.68;;;3.97;;
44850;SDS011;30583;48.714;9.386;2023-11-21T02:31:12;8.85;;;3.60;;
44850;SDS011;30583;48.714;9.386;2023-11-21T02:33:38;8.68;;;3.25;;
44850;SDS011;30583;48.714;9.386;2023-11-21T02:36:04;7.38;;;3.53;;
44850;SDS011;30583;48.714;9.386;2023-11-21T02:38:30;10.23;;;3.60;;
44850;SDS011;30583;48.714;9.386;2023-11-21T02:40:57;8.30;;;3.10;;
44850;SDS011;30583;48.714;9.386;2023-11-21T02:43:23;10.18;;;3.97;;
44850;SDS011;30583;48.714;9.386;2023-11-21T02:45:48;10.70;;;3.65;;
44850;SDS011;30583;48.714;9.386;2023-11-21T02:48:14;10.60;;;4.00;;
44850;SDS011;30583;48.714;9.386;2023-11-21T02:50:39;9.80;;;3.45;;
44850;SDS011;30583;48.714;9.386;2023-11-21T02:53:05;7.90;;;3.92;;
44850;SDS011;30583;48.714;9.386;2023-11-21T02:55:31;9.65;;;3.88;;
44850;SDS011;30583;48.714;9.386;2023-11-21T02:57:59;8.38;;;3.38;;
44850;SDS011;30583;48.714;9.386;2023-11-21T03:00:25;9.20;;;3.83;;
44850;SDS011;30583;48.714;9.386;2023-11-21T03:02:51;6.53;;;3.00;;
44850;SDS011;30583;48.714;9.386;2023-11-21T03:05:16;8.15;;;2.90;;
44850;SDS011;30583;48.714;9.386;2023-11-21T03:07:42;9.38;;;2.90;;
44850;SDS011;30583;48.714;9.386;2023-11-21T03:10:08;6.10;;;2.70;;
44850;SDS011;30583;48.714;9.386;2023-11-21T03:12:35;6.65;;;2.63;;
44850;SDS011;30583;48.714;9.386;2023-11-21T03:15:05;5.75;;;2.67;;
44850;SDS011;30583;48.714;9.386;2023-11-21T03:17:31;5.55;;;2.60;;
44850;SDS011;30583;48.714;9.386;2023-11-21T03:19:59;7.32;;;2.65;;
44850;SDS011;30583;48.714;9.386;2023-11-21T03:22:25;7.95;;;2.70;;
44850;SDS011;30583;48.714;9.386;2023-11-21T03:24:51;6.38;;;2.63;;
44850;SDS011;30583;48.714;9.386;2023-11-21T03:27:17;11.15;;;2.58;;
44850;SDS011;30583;48.714;9.386;2023-11-21T03:29:43;7.03;;;2.22;;
44850;SDS011;30583;48.714;9.386;2023-11-21T03:32:10;6.45;;;2.20;;
44850;SDS011;30583;48.714;9.386;2023-11-21T03:34:48;5.35;;;2.13;;
44850;SDS011;30583;48.714;9.386;2023-11-21T03:37:21;6.32;;;2.50;;
44850;SDS011;30583;48.714;9.386;2023-11-21T03:39:47;8.13;;;2.60;;
44850;SDS011;30583;48.714;9.386;2023-11-21T03:42:13;6.78;;;2.38;;
44850;SDS011;30583;48.714;9.386;2023-11-21T03:44:38;8.45;;;2.67;;
44850;SDS011;30583;48.714;9.386;2023-11-21T03:47:04;7.40;;;2.50;;
44850;SDS011;30583;48.714;9.386;2023-11-21T03:49:30;7.22;;;1.92;;
44850;SDS011;30583;48.714;9.386;2023-11-21T03:51:56;5.45;;;1.98;;
44850;SDS011;30583;48.714;9.386;2023-11-21T03:54:21;12.35;;;2.70;;
44850;SDS011;30583;48.714;9.386;2023-11-21T03:56:47;4.65;;;2.00;;
44850;SDS011;30583;48.714;9.386;2023-11-21T03:59:12;5.93;;;1.77;;
44850;SDS011;30583;48.714;9.386;2023-11-21T04:01:38;4.60;;;1.90;;
44850;SDS011;30583;48.714;9.386;2023-11-21T04:04:04;5.93;;;1.40;;
44850;SDS011;30583;48.714;9.386;2023-11-21T04:06:29;5.25;;;1.80;;
44850;SDS011;30583;48.714;9.386;2023-11-21T04:08:55;6.00;;;2.17;;
44850;SDS011;30583;48.714;9.386;2023-11-21T04:11:20;4.32;;;1.73;;
44850;SDS011;30583;48.714;9.386;2023-11-21T04:13:46;4.72;;;1.83;;
44850;SDS011;30583;48.714;9.386;2023-11-21T04:16:12;6.07;;;2.10;;
44850;SDS011;30583;48.714;9.386;2023-11-21T04:18:38;5.32;;;2.33;;
44850;SDS011;30583;48.714;9.386;2023-11-21T04:21:06;4.53;;;2.10;;
44850;SDS011;30583;48.714;9.386;2023-11-21T04:23:33;8.30;;;2.80;;
44850;SDS011;30583;48.714;9.386;2023-11-21T04:25:59;4.70;;;1.50;;
44850;SDS011;30583;48.714;9.386;2023-11-21T04:28:27;3.72;;;1.70;;
44850;SDS011;30583;48.714;9.386;2023-11-21T04:30:53;7.18;;;2.45;;
44850;SDS011;30583;48.714;9.386;2023-11-21T04:33:18;7.50;;;2.20;;
44850;SDS011;30583;48.714;9.386;2023-11-21T04:35:44;4.10;;;1.70;;
44850;SDS011;30583;48.714;9.386;2023-11-21T04:38:10;4.88;;;2.03;;
44850;SDS011;30583;48.714;9.386;2023-11-21T04:40:35;6.80;;;2.95;;
44850;SDS011;30583;48.714;9.386;2023-11-21T04:43:01;6.53;;;2.05;;
44850;SDS011;30583;48.714;9.386;2023-11-21T04:45:27;5.28;;;2.20;;
44850;SDS011;30583;48.714;9.386;2023-11-21T04:47:52;3.55;;;1.30;;
44850;SDS011;30583;48.714;9.386;2023-11-21T04:50:18;2.95;;;1.25;;
44850;SDS011;30583;48.714;9.386;2023-11-21T04:52:44;2.90;;;1.30;;
44850;SDS011;30583;48.714;9.386;2023-11-21T04:55:09;3.55;;;1.58;;
44850;SDS011;30583;48.714;9.386;2023-11-21T04:57:36;4.93;;;2.30;;
44850;SDS011;30583;48.714;9.386;2023-11-21T05:00:02;5.90;;;2.20;;
44850;SDS011;30583;48.714;9.386;2023-11-21T05:02:30;4.50;;;1.92;;
44850;SDS011;30583;48.714;9.386;2023-11-21T05:04:59;4.03;;;1.88;;
44850;SDS011;30583;48.714;9.386;2023-11-21T05:07:25;6.10;;;2.40;;
44850;SDS011;30583;48.714;9.386;2023-11-21T05:09:53;4.75;;;2.55;;
44850;SDS011;30583;48.714;9.386;2023-11-21T05:12:21;4.97;;;1.98;;
44850;SDS011;30583;48.714;9.386;2023-11-21T05:14:48;6.65;;;2.47;;
44850;SDS011;30583;48.714;9.386;2023-11-21T05:17:14;4.78;;;2.22;;
44850;SDS011;30583;48.714;9.386;2023-11-21T05:19:39;8.07;;;2.85;;
44850;SDS011;30583;48.714;9.386;2023-11-21T05:22:06;8.57;;;2.70;;
44850;SDS011;30583;48.714;9.386;2023-11-21T05:24:31;4.03;;;2.17;;
44850;SDS011;30583;48.714;9.386;2023-11-21T05:26:57;3.13;;;1.48;;
44850;SDS011;30583;48.714;9.386;2023-11-21T05:29:22;3.88;;;1.40;;
44850;SDS011;30583;48.714;9.386;2023-11-21T05:31:48;3.38;;;1.45;;
44850;SDS011;30583;48.714;9.386;2023-11-21T05:34:14;4.88;;;1.90;;
44850;SDS011;30583;48.714;9.386;2023-11-21T05:36:42;7.57;;;3.05;;
44850;SDS011;30583;48.714;9.386;2023-11-21T05:39:08;9.52;;;3.97;;
44850;SDS011;30583;48.714;9.386;2023-11-21T05:41:36;11.02;;;5.80;;
44850;SDS011;30583;48.714;9.386;2023-11-21T05:44:01;11.57;;;5.45;;
44850;SDS011;30583;48.714;9.386;2023-11-21T05:46:27;9.77;;;4.57;;
44850;SDS011;30583;48.714;9.386;2023-11-21T05:48:53;8.82;;;4.28;;
44850;SDS011;30583;48.714;9.386;2023-11-21T05:51:18;7.53;;;3.50;;
44850;SDS011;30583;48.714;9.386;2023-11-21T05:53:44;7.35;;;3.65;;
44850;SDS011;30583;48.714;9.386;2023-11-21T05:56:09;8.57;;;4.03;;
44850;SDS011;30583;48.714;9.386;2023-11-21T05:58:35;7.03;;;3.53;;
44850;SDS011;30583;48.714;9.386;2023-11-21T06:01:01;9.80;;;3.70;;
44850;SDS011;30583;48.714;9.386;2023-11-21T06:03:28;7.35;;;3.35;;
44850;SDS011;30583;48.714;9.386;2023-11-21T06:05:53;7.60;;;3.40;;
44850;SDS011;30583;48.714;9.386;2023-11-21T06:08:19;13.68;;;10.82;;
44850;SDS011;30583;48.714;9.386;2023-11-21T06:10:44;13.50;;;7.03;;
44850;SDS011;30583;48.714;9.386;2023-11-21T06:13:14;29.95;;;17.17;;
44850;SDS011;30583;48.714;9.386;2023-11-21T06:15:39;31.55;;;16.58;;
44850;SDS011;30583;48.714;9.386;2023-11-21T06:18:05;16.15;;;6.65;;
44850;SDS011;30583;48.714;9.386;2023-11-21T06:20:34;24.40;;;12.10;;
44850;SDS011;30583;48.714;9.386;2023-11-21T06:23:02;24.75;;;12.98;;
44850;SDS011;30583;48.714;9.386;2023-11-21T06:25:28;13.15;;;7.25;;
44850;SDS011;30583;48.714;9.386;2023-11-21T06:27:54;8.23;;;4.90;;
44850;SDS011;30583;48.714;9.386;2023-11-21T06:30:21;21.45;;;10.40;;
44850;SDS011;30583;48.714;9.386;2023-11-21T06:32:48;13.07;;;5.88;;
44850;SDS011;30583;48.714;9.386;2023-11-21T06:35:14;32.15;;;19.05;;
44850;SDS011;30583;48.714;9.386;2023-11-21T06:37:40;79.93;;;47.13;;
44850;SDS011;30583;48.714;9.386;2023-11-21T06:40:06;50.70;;;29.90;;
44850;SDS011;30583;48.714;9.386;2023-11-21T06:42:34;32.92;;;19.65;;
44850;SDS011;30583;48.714;9.386;2023-11-21T06:45:00;13.63;;;7.53;;
44850;SDS011;30583;48.714;9.386;2023-11-21T06:47:28;10.13;;;6.20;;
44850;SDS011;30583;48.714;9.386;2023-11-21T06:49:55;9.23;;;5.55;;
44850;SDS011;30583;48.714;9.386;2023-11-21T06:52:21;12.25;;;4.45;;
44850;SDS011;30583;48.714;9.386;2023-11-21T06:54:47;8.35;;;4.30;;
44850;SDS011;30583;48.714;9.386;2023-11-21T06:57:14;6.38;;;3.65;;
44850;SDS011;30583;48.714;9.386;2023-11-21T06:59:40;4.90;;;3.08;;
44850;SDS011;30583;48.714;9.386;2023-11-21T07:02:05;4.32;;;1.48;;
44850;SDS011;30583;48.714;9.386;2023-11-21T07:04:32;4.10;;;1.52;;
44850;SDS011;30583;48.714;9.386;2023-11-21T07:06:58;3.35;;;1.75;;
44850;SDS011;30583;48.714;9.386;2023-11-21T07:09:24;3.83;;;1.90;;
44850;SDS011;30583;48.714;9.386;2023-11-21T07:11:51;8.50;;;5.65;;
44850;SDS011;30583;48.714;9.386;2023-11-21T07:14:19;4.85;;;2.60;;
44850;SDS011;30583;48.714;9.386;2023-11-21T07:16:46;4.88;;;2.53;;
44850;SDS011;30583;48.714;9.386;2023-11-21T07:19:12;3.88;;;2.05;;
44850;SDS011;30583;48.714;9.386;2023-11-21T07:21:38;2.47;;;1.77;;
44850;SDS011;30583;48.714;9.386;2023-11-21T07:24:05;3.20;;;1.90;;
44850;SDS011;30583;48.714;9.386;2023-11-21T07:26:32;4.32;;;2.50;;
44850;SDS011;30583;48.714;9.386;2023-11-21T07:28:58;5.80;;;2.97;;
44850;SDS011;30583;48.714;9.386;2023-11-21T07:31:31;9.80;;;4.85;;
44850;SDS011;30583;48.714;9.386;2023-11-21T07:33:59;3.90;;;2.80;;
44850;SDS011;30583;48.714;9.386;2023-11-21T07:36:25;6.80;;;5.18;;
44850;SDS011;30583;48.714;9.386;2023-11-21T07:38:51;17.90;;;12.50;;
44850;SDS011;30583;48.714;9.386;2023-11-21T07:41:17;11.00;;;6.80;;
44850;SDS011;30583;48.714;9.386;2023-11-21T07:43:43;20.63;;;12.57;;
44850;SDS011;30583;48.714;9.386;2023-11-21T07:46:10;11.35;;;8.27;;
44850;SDS011;30583;48.714;9.386;2023-11-21T07:48:37;16.30;;;11.57;;
44850;SDS011;30583;48.714;9.386;2023-11-21T07:51:07;14.88;;;11.48;;
44850;SDS011;30583;48.714;9.386;2023-11-21T07:53:33;60.45;;;49.00;;
44850;SDS011;30583;48.714;9.386;2023-11-21T07:56:03;44.55;;;35.35;;
44850;SDS011;30583;48.714;9.386;2023-11-21T07:58:29;16.80;;;12.90;;
44850;SDS011;30583;48.714;9.386;2023-11-21T08:00:55;5.47;;;2.85;;
44850;SDS011;30583;48.714;9.386;2023-11-21T08:03:21;5.50;;;1.77;;
44850;SDS011;30583;48.714;9.386;2023-11-21T08:05:47;31.52;;;19.60;;
44850;SDS011;30583;48.714;9.386;2023-11-21T08:08:12;23.60;;;15.65;;
44850;SDS011;30583;48.714;9.386;2023-11-21T08:10:38;16.63;;;10.82;;
44850;SDS011;30583;48.714;9.386;2023-11-21T08:13:04;7.30;;;4.10;;
44850;SDS011;30583;48.714;9.386;2023-11-21T08:15:31;3.45;;;2.05;;
44850;SDS011;30583;48.714;9.386;2023-11-21T08:17:57;3.67;;;1.60;;
44850;SDS011;30583;48.714;9.386;2023-11-21T08:20:26;5.28;;;2.67;;
44850;SDS011;30583;48.714;9.386;2023-11-21T08:22:51;10.73;;;5.80;;
44850;SDS011;30583;48.714;9.386;2023-11-21T08:25:17;9.02;;;5.00;;
44850;SDS011;30583;48.714;9.386;2023-11-21T08:27:45;13.75;;;7.68;;
44850;SDS011;30583;48.714;9.386;2023-11-21T08:30:11;5.68;;;2.92;;
44850;SDS011;30583;48.714;9.386;2023-11-21T08:32:37;6.15;;;2.58;;
44850;SDS011;30583;48.714;9.386;2023-11-21T08:35:03;4.78;;;2.88;;
44850;SDS011;30583;48.714;9.386;2023-11-21T08:37:30;4.78;;;2.40;;
44850;SDS011;30583;48.714;9.386;2023-11-21T08:39:58;3.67;;;1.83;;
44850;SDS011;30583;48.714;9.386;2023-11-21T08:42:27;3.58;;;1.52;;
44850;SDS011;30583;48.714;9.386;2023-11-21T08:44:54;3.50;;;1.30;;
44850;SDS011;30583;48.714;9.386;2023-11-21T08:47:23;6.70;;;3.28;;
44850;SDS011;30583;48.714;9.386;2023-11-21T08:49:49;5.40;;;1.90;;
44850;SDS011;30583;48.714;9.386;2023-11-21T08:52:18;2.55;;;1.20;;
44850;SDS011;30583;48.714;9.386;2023-11-21T08:54:45;3.40;;;1.10;;
44850;SDS011;30583;48.714;9.386;2023-11-21T08:57:11;4.45;;;1.50;;
44850;SDS011;30583;48.714;9.386;2023-11-21T08:59:37;5.88;;;1.90;;
44850;SDS011;30583;48.714;9.386;2023-11-21T09:02:02;5.43;;;1.80;;
44850;SDS011;30583;48.714;9.386;2023-11-21T09:04:28;2.97;;;1.45;;
44850;SDS011;30583;48.714;9.386;2023-11-21T09:06:53;2.35;;;1.20;;
44850;SDS011;30583;48.714;9.386;2023-11-21T09:09:19;5.55;;;1.38;;
44850;SDS011;30583;48.714;9.386;2023-11-21T09:11:45;3.95;;;1.00;;
44850;SDS011;30583;48.714;9.386;2023-11-21T09:14:11;11.68;;;7.28;;
44850;SDS011;30583;48.714;9.386;2023-11-21T09:16:39;9.20;;;5.47;;
44850;SDS011;30583;48.714;9.386;2023-11-21T09:19:06;6.78;;;2.60;;
44850;SDS011;30583;48.714;9.386;2023-11-21T09:21:31;4.80;;;2.95;;
44850;SDS011;30583;48.714;9.386;2023-11-21T09:23:58;3.80;;;1.60;;
44850;SDS011;30583;48.714;9.386;2023-11-21T09:26:23;2.78;;;1.45;;
44850;SDS011;30583;48.714;9.386;2023-11-21T09:28:49;4.63;;;1.70;;
44850;SDS011;30583;48.714;9.386;2023-11-21T09:31:15;5.85;;;2.92;;
44850;SDS011;30583;48.714;9.386;2023-11-21T09:33:47;4.35;;;2.38;;
44850;SDS011;30583;48.714;9.386;2023-11-21T09:36:13;4.22;;;2.03;;
44850;SDS011;30583;48.714;9.386;2023-11-21T09:38:39;4.68;;;2.58;;
44850;SDS011;30583;48.714;9.386;2023-11-21T09:41:50;3.17;;;2.00;;
44850;SDS011;30583;48.714;9.386;2023-11-21T09:44:17;9.13;;;2.72;;
44850;SDS011;30583;48.714;9.386;2023-11-21T09:46:45;5.18;;;2.28;;
44850;SDS011;30583;48.714;9.386;2023-11-21T09:49:17;3.55;;;1.45;;
44850;SDS011;30583;48.714;9.386;2023-11-21T09:51:46;2.13;;;1.48;;
44850;SDS011;30583;48.714;9.386;2023-11-21T09:54:13;3.00;;;1.50;;
44850;SDS011;30583;48.714;9.386;2023-11-21T09:56:40;4.00;;;1.48;;
44850;SDS011;30583;48.714;9.386;2023-11-21T09:59:07;2.08;;;1.20;;
44850;SDS011;30583;48.714;9.386;2023-11-21T10:01:40;2.88;;;1.30;;
44850;SDS011;30583;48.714;9.386;2023-11-21T10:04:07;2.72;;;1.30;;
44850;SDS011;30583;48.714;9.386;2023-11-21T10:06:39;2.45;;;1.30;;
44850;SDS011;30583;48.714;9.386;2023-11-21T10:09:07;2.20;;;1.30;;
44850;SDS011;30583;48.714;9.386;2023-11-21T10:11:41;1.98;;;1.10;;
44850;SDS011;30583;48.714;9.386;2023-11-21T10:14:10;4.50;;;1.00;;
44850;SDS011;30583;48.714;9.386;2023-11-21T10:16:37;1.58;;;1.00;;
44850;SDS011;30583;48.714;9.386;2023-11-21T10:19:04;2.90;;;1.27;;
44850;SDS011;30583;48.714;9.386;2023-11-21T10:21:34;2.75;;;1.30;;
44850;SDS011;30583;48.714;9.386;2023-11-21T10:24:00;2.58;;;1.60;;
44850;SDS011;30583;48.714;9.386;2023-11-21T10:26:26;3.00;;;1.20;;
44850;SDS011;30583;48.714;9.386;2023-11-21T10:28:57;4.05;;;2.30;;
44850;SDS011;30583;48.714;9.386;2023-11-21T10:31:24;4.70;;;1.30;;
44850;SDS011;30583;48.714;9.386;2023-11-21T10:33:52;2.50;;;1.40;;
44850;SDS011;30583;48.714;9.386;2023-11-21T10:36:25;2.85;;;1.30;;
44850;SDS011;30583;48.714;9.386;2023-11-21T10:38:52;2.85;;;1.25;;
44850;SDS011;30583;48.714;9.386;2023-11-21T10:41:18;2.25;;;1.00;;
44850;SDS011;30583;48.714;9.386;2023-11-21T10:43:45;2.58;;;1.10;;
44850;SDS011;30583;48.714;9.386;2023-11-21T10:46:10;5.88;;;3.00;;
44850;SDS011;30583;48.714;9.386;2023-11-21T10:48:36;2.78;;;1.50;;
44850;SDS011;30583;48.714;9.386;2023-11-21T10:51:06;11.90;;;6.25;;
44850;SDS011;30583;48.714;9.386;2023-11-21T10:53:38;7.40;;;5.03;;
44850;SDS011;30583;48.714;9.386;2023-11-21T10:56:06;4.50;;;2.05;;
44850;SDS011;30583;48.714;9.386;2023-11-21T10:58:35;7.03;;;2.92;;
44850;SDS011;30583;48.714;9.386;2023-11-21T11:01:03;4.35;;;2.17;;
44850;SDS011;30583;48.714;9.386;2023-11-21T11:03:32;4.45;;;2.40;;
44850;SDS011;30583;48.714;9.386;2023-11-21T11:06:01;13.75;;;9.75;;
44850;SDS011;30583;48.714;9.386;2023-11-21T11:08:29;7.05;;;3.55;;
44850;SDS011;30583;48.714;9.386;2023-11-21T11:10:55;9.68;;;5.72;;
44850;SDS011;30583;48.714;9.386;2023-11-21T11:13:21;6.10;;;2.17;;
44850;SDS011;30583;48.714;9.386;2023-11-21T11:15:47;5.93;;;2.38;;
44850;SDS011;30583;48.714;9.386;2023-11-21T11:18:14;5.53;;;1.88;;
44850;SDS011;30583;48.714;9.386;2023-11-21T11:20:41;4.75;;;1.90;;
44850;SDS011;30583;48.714;9.386;2023-11-21T11:32:24;4.43;;;2.00;;
44850;SDS011;30583;48.714;9.386;2023-11-21T11:35:04;4.35;;;1.40;;
44850;SDS011;30583;48.714;9.386;2023-11-21T11:37:39;3.58;;;1.80;;
44850;SDS011;30583;48.714;9.386;2023-11-21T11:40:10;3.08;;;1.38;;
44850;SDS011;30583;48.714;9.386;2023-11-21T11:42:37;9.93;;;5.28;;
44850;SDS011;30583;48.714;9.386;2023-11-21T11:45:02;6.45;;;3.55;;
44850;SDS011;30583;48.714;9.386;2023-11-21T11:47:44;2.42;;;1.70;;
44850;SDS011;30583;48.714;9.386;2023-11-21T11:50:12;2.88;;;1.17;;
44850;SDS011;30583;48.714;9.386;2023-11-21T11:52:42;5.25;;;1.30;;
44850;SDS011;30583;48.714;9.386;2023-11-21T11:55:13;10.38;;;7.20;;
44850;SDS011;30583;48.714;9.386;2023-11-21T11:57:41;4.57;;;2.40;;
44850;SDS011;30583;48.714;9.386;2023-11-21T12:05:19;4.13;;;1.67;;
44850;SDS011;30583;48.714;9.386;2023-11-21T12:10:15;4.63;;;2.00;;
44850;SDS011;30583;48.714;9.386;2023-11-21T12:12:49;27.35;;;2.90;;
44850;SDS011;30583;48.714;9.386;2023-11-21T12:15:17;17.45;;;4.20;;
44850;SDS011;30583;48.714;9.386;2023-11-21T12:17:44;14.45;;;3.88;;
44850;SDS011;30583;48.714;9.386;2023-11-21T12:20:11;9.20;;;2.78;;
44850;SDS011;30583;48.714;9.386;2023-11-21T12:22:42;4.43;;;1.95;;
44850;SDS011;30583;48.714;9.386;2023-11-21T12:25:33;7.70;;;1.98;;
44850;SDS011;30583;48.714;9.386;2023-11-21T12:27:59;16.30;;;3.80;;
44850;SDS011;30583;48.714;9.386;2023-11-21T12:30:26;10.07;;;4.30;;
44850;SDS011;30583;48.714;9.386;2023-11-21T12:32:55;8.68;;;4.35;;
44850;SDS011;30583;48.714;9.386;2023-11-21T12:35:24;4.00;;;2.72;;
44850;SDS011;30583;48.714;9.386;2023-11-21T12:37:51;6.25;;;3.25;;
44850;SDS011;30583;48.714;9.386;2023-11-21T12:40:18;5.35;;;2.92;;
44850;SDS011;30583;48.714;9.386;2023-11-21T12:42:45;5.82;;;3.10;;
44850;SDS011;30583;48.714;9.386;2023-11-21T12:47:42;3.65;;;2.00;;
44850;SDS011;30583;48.714;9.386;2023-11-21T12:50:09;5.90;;;3.10;;
44850;SDS011;30583;48.714;9.386;2023-11-21T12:52:45;7.28;;;4.40;;
44850;SDS011;30583;48.714;9.386;2023-11-21T12:55:16;13.30;;;9.98;;
44850;SDS011;30583;48.714;9.386;2023-11-21T12:57:43;10.00;;;7.68;;
44850;SDS011;30583;48.714;9.386;2023-11-21T13:00:10;5.30;;;2.30;;
44850;SDS011;30583;48.714;9.386;2023-11-21T13:02:42;7.00;;;5.28;;
44850;SDS011;30583;48.714;9.386;2023-11-21T13:05:08;4.63;;;2.80;;
44850;SDS011;30583;48.714;9.386;2023-11-21T13:07:44;5.25;;;3.25;;
44850;SDS011;30583;48.714;9.386;2023-11-21T13:10:13;2.60;;;1.73;;
44850;SDS011;30583;48.714;9.386;2023-11-21T13:12:43;3.70;;;1.40;;
44850;SDS011;30583;48.714;9.386;2023-11-21T13:15:13;4.07;;;2.07;;
44850;SDS011;30583;48.714;9.386;2023-11-21T13:17:42;3.58;;;1.10;;
44850;SDS011;30583;48.714;9.386;2023-11-21T13:20:10;2.65;;;1.08;;
44850;SDS011;30583;48.714;9.386;2023-11-21T13:22:44;2.35;;;0.82;;
44850;SDS011;30583;48.714;9.386;2023-11-21T13:25:14;1.57;;;1.07;;
44850;SDS011;30583;48.714;9.386;2023-11-21T13:27:42;5.40;;;1.10;;
44850;SDS011;30583;48.714;9.386;2023-11-21T13:30:09;3.15;;;1.00;;
44850;SDS011;30583;48.714;9.386;2023-11-21T13:32:35;2.22;;;0.80;;
44850;SDS011;30583;48.714;9.386;2023-11-21T13:35:01;3.38;;;1.20;;
44850;SDS011;30583;48.714;9.386;2023-11-21T13:37:27;2.13;;;1.10;;
44850;SDS011;30583;48.714;9.386;2023-11-21T13:39:53;6.68;;;1.60;;
44850;SDS011;30583;48.714;9.386;2023-11-21T13:42:19;9.55;;;2.15;;
44850;SDS011;30583;48.714;9.386;2023-11-21T13:44:55;6.50;;;1.70;;
44850;SDS011;30583;48.714;9.386;2023-11-21T13:47:21;5.63;;;2.15;;
44850;SDS011;30583;48.714;9.386;2023-11-21T13:49:50;3.83;;;1.55;;
44850;SDS011;30583;48.714;9.386;2023-11-21T13:52:16;5.45;;;1.65;;
44850;SDS011;30583;48.714;9.386;2023-11-21T13:54:44;7.85;;;2.55;;
44850;SDS011;30583;48.714;9.386;2023-11-21T13:57:09;6.47;;;3.13;;
44850;SDS011;30583;48.714;9.386;2023-11-21T13:59:35;4.13;;;1.70;;
44850;SDS011;30583;48.714;9.386;2023-11-21T14:02:01;2.97;;;1.50;;
44850;SDS011;30583;48.714;9.386;2023-11-21T14:04:42;2.28;;;1.45;;
44850;SDS011;30583;48.714;9.386;2023-11-21T14:07:20;2.97;;;1.60;;
44850;SDS011;30583;48.714;9.386;2023-11-21T14:10:01;3.20;;;1.25;;
44850;SDS011;30583;48.714;9.386;2023-11-21T14:12:28;3.13;;;1.25;;
44850;SDS011;30583;48.714;9.386;2023-11-21T14:14:54;3.60;;;1.77;;
44850;SDS011;30583;48.714;9.386;2023-11-21T14:17:20;3.38;;;1.63;;
44850;SDS011;30583;48.714;9.386;2023-11-21T14:19:47;3.03;;;1.50;;
44850;SDS011;30583;48.714;9.386;2023-11-21T14:22:14;2.92;;;1.40;;
44850;SDS011;30583;48.714;9.386;2023-11-21T14:24:42;6.25;;;1.60;;
44850;SDS011;30583;48.714;9.386;2023-11-21T14:27:11;3.53;;;1.50;;
44850;SDS011;30583;48.714;9.386;2023-11-21T14:29:37;2.38;;;1.70;;
44850;SDS011;30583;48.714;9.386;2023-11-21T14:32:06;4.22;;;1.73;;
44850;SDS011;30583;48.714;9.386;2023-11-21T14:34:32;2.90;;;1.92;;
44850;SDS011;30583;48.714;9.386;2023-11-21T14:36:58;4.05;;;2.28;;
44850;SDS011;30583;48.714;9.386;2023-11-21T14:39:24;4.45;;;2.75;;
44850;SDS011;30583;48.714;9.386;2023-11-21T14:41:52;5.63;;;2.70;;
44850;SDS011;30583;48.714;9.386;2023-11-21T14:44:20;5.05;;;3.10;;
44850;SDS011;30583;48.714;9.386;2023-11-21T14:46:49;3.47;;;2.10;;
44850;SDS011;30583;48.714;9.386;2023-11-21T14:49:15;3.50;;;2.15;;
44850;SDS011;30583;48.714;9.386;2023-11-21T14:51:48;3.40;;;1.90;;
44850;SDS011;30583;48.714;9.386;2023-11-21T14:54:22;3.35;;;2.00;;
44850;SDS011;30583;48.714;9.386;2023-11-21T14:57:04;3.90;;;1.58;;
44850;SDS011;30583;48.714;9.386;2023-11-21T14:59:34;3.80;;;1.70;;
44850;SDS011;30583;48.714;9.386;2023-11-21T15:02:00;3.90;;;1.88;;
44850;SDS011;30583;48.714;9.386;2023-11-21T15:04:39;3.85;;;2.20;;
44850;SDS011;30583;48.714;9.386;2023-11-21T15:07:07;5.05;;;2.05;;